sensor_id;sensor_type;location;lat;lon;timestamp;pressure;altitude;pressure_sealevel;temperature;humidity
71907;BME280;59781;52.090;5.030;2023-01-19T00:02:22;99899.75;;;4.13;98.59
71907;BME280;59781;52.090;5.030;2023-01-19T00:04:49;99892.91;;;4.10;98.61
71907;BME280;59781;52.090;5.030;2023-01-19T00:07:15;99894.88;;;4.26;97.77
71907;BME280;59781;52.090;5.030;2023-01-19T00:09:41;99881.09;;;4.30;97.26
71907;BME280;59781;52.090;5.030;2023-01-19T00:12:07;99885.75;;;4.28;97.57
71907;BME280;59781;52.090;5.030;2023-01-19T00:14:33;99888.03;;;4.23;97.70
71907;BME280;59781;52.090;5.030;2023-01-19T00:16:59;99897.47;;;4.36;98.58
71907;BME280;59781;52.090;5.030;2023-01-19T00:19:26;99890.38;;;4.44;97.85
71907;BME280;59781;52.090;5.030;2023-01-19T00:21:53;99905.31;;;4.37;98.35
71907;BME280;59781;52.090;5.030;2023-01-19T00:24:19;99904.22;;;4.48;99.12
71907;BME280;59781;52.090;5.030;2023-01-19T00:26:45;99894.47;;;4.39;98.44
71907;BME280;59781;52.090;5.030;2023-01-19T00:29:12;99891.22;;;4.27;99.29
71907;BME280;59781;52.090;5.030;2023-01-19T00:31:39;99888.34;;;4.64;97.78
71907;BME280;59781;52.090;5.030;2023-01-19T00:34:05;99891.31;;;4.61;97.68
71907;BME280;59781;52.090;5.030;2023-01-19T00:36:32;99892.63;;;4.57;97.63
71907;BME280;59781;52.090;5.030;2023-01-19T00:38:59;99903.53;;;4.46;98.87
71907;BME280;59781;52.090;5.030;2023-01-19T00:41:25;99896.38;;;4.46;99.10
71907;BME280;59781;52.090;5.030;2023-01-19T00:44:11;99905.16;;;4.03;100.00
71907;BME280;59781;52.090;5.030;2023-01-19T00:46:38;99914.44;;;3.99;100.00
71907;BME280;59781;52.090;5.030;2023-01-19T00:49:04;99914.84;;;3.86;100.00
71907;BME280;59781;52.090;5.030;2023-01-19T00:51:30;99913.53;;;3.90;100.00
71907;BME280;59781;52.090;5.030;2023-01-19T00:53:57;99911.41;;;3.94;100.00
71907;BME280;59781;52.090;5.030;2023-01-19T00:56:30;99916.19;;;3.90;100.00
71907;BME280;59781;52.090;5.030;2023-01-19T00:58:56;99901.28;;;3.80;100.00
71907;BME280;59781;52.090;5.030;2023-01-19T01:01:21;99898.63;;;3.97;100.00
71907;BME280;59781;52.090;5.030;2023-01-19T01:03:47;99901.13;;;3.99;100.00
71907;BME280;59781;52.090;5.030;2023-01-19T01:06:13;99902.78;;;3.82;100.00
71907;BME280;59781;52.090;5.030;2023-01-19T01:08:38;99902.88;;;3.90;100.00
71907;BME280;59781;52.090;5.030;2023-01-19T01:11:04;99902.00;;;3.72;100.00
71907;BME280;59781;52.090;5.030;2023-01-19T01:13:30;99901.84;;;3.73;100.00
71907;BME280;59781;52.090;5.030;2023-01-19T01:15:55;99909.50;;;3.86;100.00
71907;BME280;59781;52.090;5.030;2023-01-19T01:18:22;99907.69;;;4.05;100.00
71907;BME280;59781;52.090;5.030;2023-01-19T01:20:48;99914.22;;;4.10;100.00
71907;BME280;59781;52.090;5.030;2023-01-19T01:23:15;99916.69;;;4.03;100.00
71907;BME280;59781;52.090;5.030;2023-01-19T01:25:40;99921.31;;;4.37;100.00
71907;BME280;59781;52.090;5.030;2023-01-19T01:28:07;99915.28;;;4.35;100.00
71907;BME280;59781;52.090;5.030;2023-01-19T01:30:35;99918.13;;;4.16;100.00
71907;BME280;59781;52.090;5.030;2023-01-19T01:33:06;99909.03;;;4.26;100.00
71907;BME280;59781;52.090;5.030;2023-01-19T01:35:32;99911.06;;;4.50;100.00
71907;BME280;59781;52.090;5.030;2023-01-19T01:37:59;99918.34;;;4.66;100.00
71907;BME280;59781;52.090;5.030;2023-01-19T01:40:26;99920.38;;;4.28;100.00
71907;BME280;59781;52.090;5.030;2023-01-19T01:42:52;99919.56;;;4.28;100.00
71907;BME280;59781;52.090;5.030;2023-01-19T01:45:33;99927.31;;;4.21;100.00
71907;BME280;59781;52.090;5.030;2023-01-19T01:50:38;99938.59;;;4.15;100.00
71907;BME280;59781;52.090;5.030;2023-01-19T01:53:31;99945.59;;;4.16;100.00
71907;BME280;59781;52.090;5.030;2023-01-19T01:56:02;99949.41;;;4.14;100.00
71907;BME280;59781;52.090;5.030;2023-01-19T01:58:32;99957.19;;;4.25;100.00
71907;BME280;59781;52.090;5.030;2023-01-19T02:00:59;99967.59;;;4.18;100.00
71907;BME280;59781;52.090;5.030;2023-01-19T02:03:43;99960.44;;;4.19;100.00
71907;BME280;59781;52.090;5.030;2023-01-19T02:06:11;99968.38;;;3.83;100.00
71907;BME280;59781;52.090;5.030;2023-01-19T02:08:56;99974.84;;;3.81;100.00
71907;BME280;59781;52.090;5.030;2023-01-19T02:11:47;99981.06;;;3.71;100.00
71907;BME280;59781;52.090;5.030;2023-01-19T02:14:34;99984.81;;;3.79;100.00
71907;BME280;59781;52.090;5.030;2023-01-19T02:17:04;99984.22;;;3.57;100.00
71907;BME280;59781;52.090;5.030;2023-01-19T02:19:40;99987.78;;;3.76;100.00
71907;BME280;59781;52.090;5.030;2023-01-19T02:22:18;99983.50;;;3.65;100.00
71907;BME280;59781;52.090;5.030;2023-01-19T02:25:06;99989.94;;;3.90;100.00
71907;BME280;59781;52.090;5.030;2023-01-19T02:27:33;99990.56;;;4.01;100.00
71907;BME280;59781;52.090;5.030;2023-01-19T02:29:59;99998.03;;;3.98;100.00
71907;BME280;59781;52.090;5.030;2023-01-19T02:32:28;100001.63;;;3.79;100.00
71907;BME280;59781;52.090;5.030;2023-01-19T02:34:54;100012.53;;;3.86;100.00
71907;BME280;59781;52.090;5.030;2023-01-19T02:37:21;100022.41;;;3.76;100.00
71907;BME280;59781;52.090;5.030;2023-01-19T02:39:51;100036.94;;;3.81;100.00
71907;BME280;59781;52.090;5.030;2023-01-19T02:42:28;100055.28;;;3.57;100.00
71907;BME280;59781;52.090;5.030;2023-01-19T02:44:59;100052.03;;;3.53;100.00
71907;BME280;59781;52.090;5.030;2023-01-19T02:47:44;100065.25;;;3.45;100.00
71907;BME280;59781;52.090;5.030;2023-01-19T02:50:55;100073.69;;;3.31;100.00
71907;BME280;59781;52.090;5.030;2023-01-19T03:02:05;100054.66;;;3.35;100.00
71907;BME280;59781;52.090;5.030;2023-01-19T03:05:02;100033.41;;;3.16;100.00
71907;BME280;59781;52.090;5.030;2023-01-19T03:08:06;100020.09;;;3.53;99.58
71907;BME280;59781;52.090;5.030;2023-01-19T03:11:00;100018.50;;;3.23;100.00
71907;BME280;59781;52.090;5.030;2023-01-19T03:16:15;100024.09;;;3.39;100.00
71907;BME280;59781;52.090;5.030;2023-01-19T03:19:04;100028.75;;;3.65;99.96
71907;BME280;59781;52.090;5.030;2023-01-19T03:21:39;100031.72;;;3.52;99.57
71907;BME280;59781;52.090;5.030;2023-01-19T03:24:11;100035.66;;;3.58;98.55
71907;BME280;59781;52.090;5.030;2023-01-19T03:26:44;100029.00;;;3.34;99.14
71907;BME280;59781;52.090;5.030;2023-01-19T03:29:19;100048.56;;;3.80;97.15
71907;BME280;59781;52.090;5.030;2023-01-19T03:31:48;100042.69;;;3.49;97.36
71907;BME280;59781;52.090;5.030;2023-01-19T03:34:18;100079.03;;;3.02;100.00
71907;BME280;59781;52.090;5.030;2023-01-19T03:36:52;100095.28;;;3.28;100.00
71907;BME280;59781;52.090;5.030;2023-01-19T03:39:23;100093.03;;;3.23;100.00
71907;BME280;59781;52.090;5.030;2023-01-19T03:41:57;100095.84;;;2.93;100.00
71907;BME280;59781;52.090;5.030;2023-01-19T03:44:33;100088.31;;;2.88;99.99
71907;BME280;59781;52.090;5.030;2023-01-19T03:47:05;100088.84;;;2.72;100.00
71907;BME280;59781;52.090;5.030;2023-01-19T03:49:35;100076.81;;;2.87;100.00
71907;BME280;59781;52.090;5.030;2023-01-19T03:52:04;100071.91;;;2.93;100.00
71907;BME280;59781;52.090;5.030;2023-01-19T03:54:30;100058.06;;;2.89;100.00
71907;BME280;59781;52.090;5.030;2023-01-19T03:56:56;100062.69;;;2.97;100.00
71907;BME280;59781;52.090;5.030;2023-01-19T03:59:22;100059.88;;;3.08;100.00
71907;BME280;59781;52.090;5.030;2023-01-19T04:01:48;100055.69;;;2.96;100.00
71907;BME280;59781;52.090;5.030;2023-01-19T04:04:14;100053.03;;;2.96;100.00
71907;BME280;59781;52.090;5.030;2023-01-19T04:06:42;100054.38;;;3.19;100.00
71907;BME280;59781;52.090;5.030;2023-01-19T04:09:08;100064.78;;;2.93;100.00
71907;BME280;59781;52.090;5.030;2023-01-19T04:11:34;100069.09;;;3.13;100.00
71907;BME280;59781;52.090;5.030;2023-01-19T04:14:00;100062.75;;;3.24;100.00
71907;BME280;59781;52.090;5.030;2023-01-19T04:16:26;100065.34;;;3.53;99.39
71907;BME280;59781;52.090;5.030;2023-01-19T04:18:51;100075.94;;;3.26;99.78
71907;BME280;59781;52.090;5.030;2023-01-19T04:21:18;100078.03;;;3.32;99.03
71907;BME280;59781;52.090;5.030;2023-01-19T04:23:45;100082.66;;;3.20;99.71
71907;BME280;59781;52.090;5.030;2023-01-19T04:26:11;100072.84;;;3.30;99.54
71907;BME280;59781;52.090;5.030;2023-01-19T04:28:38;100072.19;;;2.99;100.00
71907;BME280;59781;52.090;5.030;2023-01-19T04:31:05;100078.66;;;2.68;100.00
71907;BME280;59781;52.090;5.030;2023-01-19T04:33:32;100079.34;;;3.08;100.00
71907;BME280;59781;52.090;5.030;2023-01-19T04:35:59;100076.53;;;3.10;100.00
71907;BME280;59781;52.090;5.030;2023-01-19T04:38:26;100079.59;;;3.25;100.00
71907;BME280;59781;52.090;5.030;2023-01-19T04:40:53;100085.78;;;3.15;100.00
71907;BME280;59781;52.090;5.030;2023-01-19T04:43:20;100079.88;;;3.12;100.00
71907;BME280;59781;52.090;5.030;2023-01-19T04:45:47;100073.72;;;3.02;100.00
71907;BME280;59781;52.090;5.030;2023-01-19T04:48:14;100082.53;;;3.22;100.00
71907;BME280;59781;52.090;5.030;2023-01-19T04:50:40;100088.44;;;3.06;100.00
71907;BME280;59781;52.090;5.030;2023-01-19T04:53:07;100096.28;;;3.17;100.00
71907;BME280;59781;52.090;5.030;2023-01-19T04:55:33;100085.63;;;3.17;100.00
71907;BME280;59781;52.090;5.030;2023-01-19T04:57:59;100088.31;;;2.98;100.00
71907;BME280;59781;52.090;5.030;2023-01-19T05:00:25;100096.09;;;3.38;100.00
71907;BME280;59781;52.090;5.030;2023-01-19T05:02:51;100098.22;;;3.71;99.50
71907;BME280;59781;52.090;5.030;2023-01-19T05:05:17;100125.19;;;3.59;99.96
71907;BME280;59781;52.090;5.030;2023-01-19T05:07:44;100123.25;;;3.32;100.00
71907;BME280;59781;52.090;5.030;2023-01-19T05:10:10;100110.78;;;3.42;100.00
71907;BME280;59781;52.090;5.030;2023-01-19T05:12:36;100107.38;;;3.59;100.00
71907;BME280;59781;52.090;5.030;2023-01-19T05:15:02;100118.06;;;3.50;100.00
71907;BME280;59781;52.090;5.030;2023-01-19T05:17:28;100131.41;;;3.87;100.00
71907;BME280;59781;52.090;5.030;2023-01-19T05:19:54;100130.25;;;3.99;99.64
71907;BME280;59781;52.090;5.030;2023-01-19T05:22:20;100123.63;;;4.30;97.86
71907;BME280;59781;52.090;5.030;2023-01-19T05:24:45;100135.97;;;4.04;98.01
71907;BME280;59781;52.090;5.030;2023-01-19T05:27:11;100132.59;;;4.02;97.93
71907;BME280;59781;52.090;5.030;2023-01-19T05:29:37;100128.09;;;4.02;96.46
71907;BME280;59781;52.090;5.030;2023-01-19T05:32:03;100135.47;;;4.18;97.00
71907;BME280;59781;52.090;5.030;2023-01-19T05:34:29;100128.38;;;4.37;96.31
71907;BME280;59781;52.090;5.030;2023-01-19T05:36:54;100133.25;;;3.86;97.70
71907;BME280;59781;52.090;5.030;2023-01-19T05:39:20;100132.00;;;3.71;97.54
71907;BME280;59781;52.090;5.030;2023-01-19T05:41:46;100133.81;;;3.80;97.44
71907;BME280;59781;52.090;5.030;2023-01-19T05:44:12;100134.22;;;3.85;97.18
71907;BME280;59781;52.090;5.030;2023-01-19T05:46:38;100132.63;;;3.92;97.05
71907;BME280;59781;52.090;5.030;2023-01-19T05:49:05;100138.31;;;4.17;96.12
71907;BME280;59781;52.090;5.030;2023-01-19T05:51:32;100139.63;;;3.56;97.11
71907;BME280;59781;52.090;5.030;2023-01-19T05:54:12;100147.88;;;3.53;98.61
71907;BME280;59781;52.090;5.030;2023-01-19T05:56:42;100147.75;;;3.64;99.50
71907;BME280;59781;52.090;5.030;2023-01-19T05:59:08;100142.59;;;3.34;99.72
71907;BME280;59781;52.090;5.030;2023-01-19T06:01:35;100148.47;;;3.47;100.00
71907;BME280;59781;52.090;5.030;2023-01-19T06:04:02;100151.94;;;3.67;100.00
71907;BME280;59781;52.090;5.030;2023-01-19T06:06:27;100144.09;;;4.02;100.00
71907;BME280;59781;52.090;5.030;2023-01-19T06:08:53;100147.19;;;4.08;98.58
71907;BME280;59781;52.090;5.030;2023-01-19T06:11:19;100159.88;;;4.23;96.80
71907;BME280;59781;52.090;5.030;2023-01-19T06:13:45;100158.59;;;4.27;94.36
71907;BME280;59781;52.090;5.030;2023-01-19T06:16:11;100166.06;;;4.24;96.02
71907;BME280;59781;52.090;5.030;2023-01-19T06:18:39;100165.06;;;4.25;96.14
71907;BME280;59781;52.090;5.030;2023-01-19T06:21:07;100169.16;;;4.47;95.38
71907;BME280;59781;52.090;5.030;2023-01-19T06:23:34;100173.66;;;4.46;93.49
71907;BME280;59781;52.090;5.030;2023-01-19T06:26:02;100165.44;;;4.30;94.26
71907;BME280;59781;52.090;5.030;2023-01-19T06:28:28;100166.25;;;4.03;96.39
71907;BME280;59781;52.090;5.030;2023-01-19T06:30:55;100179.53;;;3.76;97.56
71907;BME280;59781;52.090;5.030;2023-01-19T06:33:22;100176.22;;;4.01;96.79
71907;BME280;59781;52.090;5.030;2023-01-19T06:35:49;100176.19;;;4.11;96.61
71907;BME280;59781;52.090;5.030;2023-01-19T06:38:16;100181.88;;;3.88;97.93
71907;BME280;59781;52.090;5.030;2023-01-19T06:40:45;100183.44;;;3.71;97.20
71907;BME280;59781;52.090;5.030;2023-01-19T06:43:18;100189.72;;;3.80;97.92
71907;BME280;59781;52.090;5.030;2023-01-19T06:45:45;100192.19;;;3.54;97.99
71907;BME280;59781;52.090;5.030;2023-01-19T06:48:11;100193.88;;;3.36;97.85
71907;BME280;59781;52.090;5.030;2023-01-19T06:50:36;100206.19;;;3.37;98.92
71907;BME280;59781;52.090;5.030;2023-01-19T06:53:02;100198.47;;;3.53;99.31
71907;BME280;59781;52.090;5.030;2023-01-19T06:55:28;100206.34;;;3.35;96.57
71907;BME280;59781;52.090;5.030;2023-01-19T06:57:58;100209.53;;;3.29;97.96
71907;BME280;59781;52.090;5.030;2023-01-19T07:00:25;100211.06;;;3.22;98.08
71907;BME280;59781;52.090;5.030;2023-01-19T07:02:51;100224.69;;;3.29;97.50
71907;BME280;59781;52.090;5.030;2023-01-19T07:05:17;100227.03;;;3.03;96.88
71907;BME280;59781;52.090;5.030;2023-01-19T07:07:43;100235.28;;;3.00;98.46
71907;BME280;59781;52.090;5.030;2023-01-19T07:10:11;100242.38;;;2.80;98.11
71907;BME280;59781;52.090;5.030;2023-01-19T07:12:38;100243.81;;;2.94;97.97
71907;BME280;59781;52.090;5.030;2023-01-19T07:15:05;100236.00;;;3.11;97.50
71907;BME280;59781;52.090;5.030;2023-01-19T07:17:31;100251.28;;;3.29;96.41
71907;BME280;59781;52.090;5.030;2023-01-19T07:19:57;100254.09;;;3.47;96.20
71907;BME280;59781;52.090;5.030;2023-01-19T07:22:23;100252.97;;;3.78;94.91
71907;BME280;59781;52.090;5.030;2023-01-19T07:24:49;100262.22;;;3.45;95.64
71907;BME280;59781;52.090;5.030;2023-01-19T07:27:14;100263.06;;;3.26;95.02
71907;BME280;59781;52.090;5.030;2023-01-19T07:29:41;100269.78;;;3.40;95.36
71907;BME280;59781;52.090;5.030;2023-01-19T07:32:07;100276.50;;;3.73;94.16
71907;BME280;59781;52.090;5.030;2023-01-19T07:34:33;100269.34;;;3.73;94.40
71907;BME280;59781;52.090;5.030;2023-01-19T07:36:59;100285.47;;;3.53;94.49
71907;BME280;59781;52.090;5.030;2023-01-19T07:39:25;100283.09;;;3.40;93.38
71907;BME280;59781;52.090;5.030;2023-01-19T07:41:50;100280.41;;;3.21;95.16
71907;BME280;59781;52.090;5.030;2023-01-19T07:44:17;100273.97;;;3.71;94.29
71907;BME280;59781;52.090;5.030;2023-01-19T07:46:43;100280.00;;;3.73;94.07
71907;BME280;59781;52.090;5.030;2023-01-19T07:49:09;100288.44;;;3.59;94.41
71907;BME280;59781;52.090;5.030;2023-01-19T07:51:34;100292.75;;;3.80;93.50
71907;BME280;59781;52.090;5.030;2023-01-19T07:54:00;100292.78;;;3.70;93.35
71907;BME280;59781;52.090;5.030;2023-01-19T07:56:26;100298.09;;;3.89;93.48
71907;BME280;59781;52.090;5.030;2023-01-19T07:58:54;100304.09;;;3.91;93.70
71907;BME280;59781;52.090;5.030;2023-01-19T08:01:21;100305.94;;;3.81;93.21
71907;BME280;59781;52.090;5.030;2023-01-19T08:03:47;100311.00;;;3.45;94.12
71907;BME280;59781;52.090;5.030;2023-01-19T08:06:20;100317.97;;;3.27;95.68
71907;BME280;59781;52.090;5.030;2023-01-19T08:08:48;100321.47;;;3.28;96.00
71907;BME280;59781;52.090;5.030;2023-01-19T08:11:14;100337.69;;;3.15;95.89
71907;BME280;59781;52.090;5.030;2023-01-19T08:13:41;100328.97;;;3.13;96.91
71907;BME280;59781;52.090;5.030;2023-01-19T08:16:07;100353.59;;;2.96;98.06
71907;BME280;59781;52.090;5.030;2023-01-19T08:18:33;100351.81;;;2.85;97.71
71907;BME280;59781;52.090;5.030;2023-01-19T08:20:59;100355.56;;;3.13;97.46
71907;BME280;59781;52.090;5.030;2023-01-19T08:23:26;100348.50;;;3.33;96.36
71907;BME280;59781;52.090;5.030;2023-01-19T08:25:53;100353.56;;;3.36;95.81
71907;BME280;59781;52.090;5.030;2023-01-19T08:28:19;100354.44;;;3.56;95.08
71907;BME280;59781;52.090;5.030;2023-01-19T08:30:47;100362.00;;;3.60;94.55
71907;BME280;59781;52.090;5.030;2023-01-19T08:33:23;100362.41;;;3.46;94.00
71907;BME280;59781;52.090;5.030;2023-01-19T08:35:52;100355.28;;;3.76;92.00
71907;BME280;59781;52.090;5.030;2023-01-19T08:38:18;100368.16;;;3.70;92.18
71907;BME280;59781;52.090;5.030;2023-01-19T08:40:44;100362.03;;;3.99;91.82
71907;BME280;59781;52.090;5.030;2023-01-19T08:43:15;100367.78;;;3.94;90.90
71907;BME280;59781;52.090;5.030;2023-01-19T08:45:45;100365.81;;;3.87;91.33
71907;BME280;59781;52.090;5.030;2023-01-19T08:48:18;100370.16;;;3.97;90.73
71907;BME280;59781;52.090;5.030;2023-01-19T08:50:47;100379.28;;;4.24;90.24
71907;BME280;59781;52.090;5.030;2023-01-19T08:53:15;100374.75;;;4.44;89.41
71907;BME280;59781;52.090;5.030;2023-01-19T08:55:41;100380.41;;;4.78;88.81
71907;BME280;59781;52.090;5.030;2023-01-19T08:58:08;100378.47;;;4.70;88.19
71907;BME280;59781;52.090;5.030;2023-01-19T09:00:35;100369.53;;;5.26;86.70
71907;BME280;59781;52.090;5.030;2023-01-19T09:03:07;100377.50;;;6.17;83.60
71907;BME280;59781;52.090;5.030;2023-01-19T09:05:36;100379.88;;;5.84;82.85
71907;BME280;59781;52.090;5.030;2023-01-19T09:08:05;100383.38;;;6.38;81.77
71907;BME280;59781;52.090;5.030;2023-01-19T09:10:37;100378.72;;;6.66;81.76
71907;BME280;59781;52.090;5.030;2023-01-19T09:13:06;100382.06;;;6.68;80.08
71907;BME280;59781;52.090;5.030;2023-01-19T09:15:36;100380.19;;;6.86;77.44
71907;BME280;59781;52.090;5.030;2023-01-19T09:18:09;100389.31;;;7.02;78.55
71907;BME280;59781;52.090;5.030;2023-01-19T09:20:42;100387.47;;;7.28;77.28
71907;BME280;59781;52.090;5.030;2023-01-19T09:23:10;100382.91;;;7.21;79.21
71907;BME280;59781;52.090;5.030;2023-01-19T09:25:38;100399.19;;;7.35;79.42
71907;BME280;59781;52.090;5.030;2023-01-19T09:28:07;100390.16;;;8.11;74.04
71907;BME280;59781;52.090;5.030;2023-01-19T09:30:36;100393.69;;;8.20;75.08
71907;BME280;59781;52.090;5.030;2023-01-19T09:33:07;100396.22;;;8.54;75.42
71907;BME280;59781;52.090;5.030;2023-01-19T09:35:37;100393.28;;;7.74;75.05
71907;BME280;59781;52.090;5.030;2023-01-19T09:38:03;100396.91;;;7.14;77.61
71907;BME280;59781;52.090;5.030;2023-01-19T09:40:32;100403.06;;;7.41;74.89
71907;BME280;59781;52.090;5.030;2023-01-19T09:43:18;100407.22;;;7.94;73.66
71907;BME280;59781;52.090;5.030;2023-01-19T09:46:14;100407.84;;;7.71;76.67
71907;BME280;59781;52.090;5.030;2023-01-19T09:48:58;100408.91;;;7.87;75.61
71907;BME280;59781;52.090;5.030;2023-01-19T09:51:28;100410.16;;;7.58;75.95
71907;BME280;59781;52.090;5.030;2023-01-19T09:56:43;100419.13;;;7.91;75.33
71907;BME280;59781;52.090;5.030;2023-01-19T09:59:22;100422.19;;;8.21;74.94
71907;BME280;59781;52.090;5.030;2023-01-19T10:02:34;100416.03;;;8.53;76.13
71907;BME280;59781;52.090;5.030;2023-01-19T10:05:13;100419.53;;;8.21;71.57
71907;BME280;59781;52.090;5.030;2023-01-19T10:08:08;100426.97;;;7.34;72.78
71907;BME280;59781;52.090;5.030;2023-01-19T10:10:50;100426.81;;;7.02;75.57
71907;BME280;59781;52.090;5.030;2023-01-19T10:19:11;100432.22;;;6.84;75.91
71907;BME280;59781;52.090;5.030;2023-01-19T10:21:44;100438.13;;;7.22;72.67
71907;BME280;59781;52.090;5.030;2023-01-19T10:26:49;100438.56;;;7.43;70.12
71907;BME280;59781;52.090;5.030;2023-01-19T10:32:14;100431.41;;;8.10;66.69
71907;BME280;59781;52.090;5.030;2023-01-19T10:34:45;100443.06;;;7.85;70.91
71907;BME280;59781;52.090;5.030;2023-01-19T10:37:32;100437.78;;;8.17;66.83
71907;BME280;59781;52.090;5.030;2023-01-19T10:40:19;100429.63;;;8.76;65.76
71907;BME280;59781;52.090;5.030;2023-01-19T10:42:51;100438.34;;;8.45;65.63
71907;BME280;59781;52.090;5.030;2023-01-19T10:45:24;100431.09;;;8.21;67.90
71907;BME280;59781;52.090;5.030;2023-01-19T10:47:58;100429.13;;;8.40;66.29
71907;BME280;59781;52.090;5.030;2023-01-19T10:50:34;100431.97;;;8.62;65.02
71907;BME280;59781;52.090;5.030;2023-01-19T10:53:05;100437.34;;;8.62;65.55
71907;BME280;59781;52.090;5.030;2023-01-19T10:55:46;100429.91;;;8.24;64.38
71907;BME280;59781;52.090;5.030;2023-01-19T10:58:28;100428.91;;;8.90;66.00
71907;BME280;59781;52.090;5.030;2023-01-19T11:01:12;100418.88;;;8.68;62.54
71907;BME280;59781;52.090;5.030;2023-01-19T11:03:46;100425.09;;;8.60;64.49
71907;BME280;59781;52.090;5.030;2023-01-19T11:08:38;100435.94;;;7.51;65.40
71907;BME280;59781;52.090;5.030;2023-01-19T11:11:04;100433.28;;;7.25;64.80
71907;BME280;59781;52.090;5.030;2023-01-19T11:13:34;100429.97;;;6.71;63.47
71907;BME280;59781;52.090;5.030;2023-01-19T11:18:44;100446.09;;;6.87;64.89
71907;BME280;59781;52.090;5.030;2023-01-19T11:21:16;100451.09;;;6.82;68.00
71907;BME280;59781;52.090;5.030;2023-01-19T11:23:49;100434.00;;;7.35;66.63
71907;BME280;59781;52.090;5.030;2023-01-19T11:26:33;100444.03;;;7.67;65.08
71907;BME280;59781;52.090;5.030;2023-01-19T11:29:20;100444.63;;;8.03;62.77
71907;BME280;59781;52.090;5.030;2023-01-19T11:31:49;100441.53;;;8.41;61.63
71907;BME280;59781;52.090;5.030;2023-01-19T11:34:31;100442.47;;;8.15;60.62
71907;BME280;59781;52.090;5.030;2023-01-19T11:37:02;100446.41;;;8.70;61.39
71907;BME280;59781;52.090;5.030;2023-01-19T11:39:51;100440.78;;;7.98;62.39
71907;BME280;59781;52.090;5.030;2023-01-19T11:42:20;100453.63;;;7.78;59.10
71907;BME280;59781;52.090;5.030;2023-01-19T11:47:44;100452.22;;;7.66;62.95
71907;BME280;59781;52.090;5.030;2023-01-19T11:50:38;100452.66;;;7.87;65.26
71907;BME280;59781;52.090;5.030;2023-01-19T11:53:31;100458.66;;;7.39;65.01
71907;BME280;59781;52.090;5.030;2023-01-19T11:56:10;100458.94;;;7.36;63.92
71907;BME280;59781;52.090;5.030;2023-01-19T11:58:40;100457.09;;;7.28;61.66
71907;BME280;59781;52.090;5.030;2023-01-19T12:03:58;100466.06;;;6.93;64.66
71907;BME280;59781;52.090;5.030;2023-01-19T12:06:32;100464.84;;;6.26;65.02
71907;BME280;59781;52.090;5.030;2023-01-19T12:11:46;100451.47;;;7.90;61.93
71907;BME280;59781;52.090;5.030;2023-01-19T12:14:26;100453.03;;;7.58;62.00
71907;BME280;59781;52.090;5.030;2023-01-19T12:17:02;100456.81;;;7.39;60.87
71907;BME280;59781;52.090;5.030;2023-01-19T12:19:48;100459.25;;;7.67;61.10
71907;BME280;59781;52.090;5.030;2023-01-19T12:22:19;100461.03;;;7.50;58.99
71907;BME280;59781;52.090;5.030;2023-01-19T12:24:54;100454.91;;;7.32;60.26
71907;BME280;59781;52.090;5.030;2023-01-19T12:27:38;100461.63;;;7.02;63.02
71907;BME280;59781;52.090;5.030;2023-01-19T12:30:25;100453.44;;;6.59;61.73
71907;BME280;59781;52.090;5.030;2023-01-19T12:36:12;100458.56;;;6.71;63.41
71907;BME280;59781;52.090;5.030;2023-01-19T12:39:15;100463.16;;;6.60;61.93
71907;BME280;59781;52.090;5.030;2023-01-19T12:41:47;100470.69;;;6.65;59.71
71907;BME280;59781;52.090;5.030;2023-01-19T12:44:30;100465.00;;;6.42;63.68
71907;BME280;59781;52.090;5.030;2023-01-19T12:58:02;100464.50;;;6.82;64.59
71907;BME280;59781;52.090;5.030;2023-01-19T13:00:32;100467.13;;;6.56;62.88
71907;BME280;59781;52.090;5.030;2023-01-19T13:03:03;100468.75;;;6.31;64.34
71907;BME280;59781;52.090;5.030;2023-01-19T13:05:52;100464.34;;;6.66;60.19
71907;BME280;59781;52.090;5.030;2023-01-19T13:08:26;100462.00;;;6.45;65.69
71907;BME280;59781;52.090;5.030;2023-01-19T13:11:21;100465.75;;;6.35;65.77
71907;BME280;59781;52.090;5.030;2023-01-19T13:18:53;100457.19;;;6.13;65.73
71907;BME280;59781;52.090;5.030;2023-01-19T13:21:40;100455.22;;;5.88;63.99
71907;BME280;59781;52.090;5.030;2023-01-19T13:24:21;100459.56;;;5.89;64.25
71907;BME280;59781;52.090;5.030;2023-01-19T13:29:17;100458.72;;;5.88;67.65
71907;BME280;59781;52.090;5.030;2023-01-19T13:31:50;100454.22;;;5.71;64.13
71907;BME280;59781;52.090;5.030;2023-01-19T13:34:23;100466.28;;;6.02;63.86
71907;BME280;59781;52.090;5.030;2023-01-19T13:36:53;100468.81;;;6.04;63.93
71907;BME280;59781;52.090;5.030;2023-01-19T13:42:28;100466.06;;;6.31;61.78
71907;BME280;59781;52.090;5.030;2023-01-19T13:45:02;100474.25;;;6.12;63.89
71907;BME280;59781;52.090;5.030;2023-01-19T13:47:45;100475.66;;;6.07;62.68
71907;BME280;59781;52.090;5.030;2023-01-19T13:50:25;100471.31;;;6.06;60.84
71907;BME280;59781;52.090;5.030;2023-01-19T13:52:53;100477.59;;;5.87;62.83
71907;BME280;59781;52.090;5.030;2023-01-19T13:55:22;100489.69;;;5.63;61.49
71907;BME280;59781;52.090;5.030;2023-01-19T13:57:50;100483.16;;;5.75;62.90
71907;BME280;59781;52.090;5.030;2023-01-19T14:02:53;100485.59;;;5.96;62.50
71907;BME280;59781;52.090;5.030;2023-01-19T14:05:40;100484.31;;;5.36;61.92
71907;BME280;59781;52.090;5.030;2023-01-19T14:10:34;100489.19;;;6.05;63.89
71907;BME280;59781;52.090;5.030;2023-01-19T14:13:05;100486.31;;;6.16;60.09
71907;BME280;59781;52.090;5.030;2023-01-19T14:15:40;100492.75;;;5.96;62.42
71907;BME280;59781;52.090;5.030;2023-01-19T14:21:03;100505.25;;;5.68;61.70
71907;BME280;59781;52.090;5.030;2023-01-19T14:23:52;100500.03;;;5.39;63.33
71907;BME280;59781;52.090;5.030;2023-01-19T14:26:53;100504.31;;;5.59;64.04
71907;BME280;59781;52.090;5.030;2023-01-19T14:31:49;100506.25;;;5.30;63.29
71907;BME280;59781;52.090;5.030;2023-01-19T14:37:00;100508.47;;;5.44;63.26
71907;BME280;59781;52.090;5.030;2023-01-19T14:39:31;100504.44;;;5.58;65.77
71907;BME280;59781;52.090;5.030;2023-01-19T14:42:01;100510.97;;;5.45;64.99